Time;durP1;ratioP1;P1;durP2;ratioP2;P2;SDS_P1;SDS_P2;PMS_P1;PMS_P2;Temp;Humidity;BMP_temperature;BMP_pressure;BME280_temperature;BME280_humidity;BME280_pressure;Samples;Min_cycle;Max_cycle;Signal;HPM_P1;HPM_P2
2022/01/13 00:02:30;;;;;;;60.27;21.93;;;2.10;99.90;;;;;;5113306;28;20171;-74
2022/01/13 00:04:55;;;;;;;82.70;27.57;;;2.00;99.90;;;;;;5113327;28;20304;-74
2022/01/13 00:07:21;;;;;;;61.83;22.60;;;2.00;99.90;;;;;;5113248;28;20260;-74
2022/01/13 00:09:47;;;;;;;45.70;19.67;;;2.00;99.90;;;;;;5111789;28;20207;-74
2022/01/13 00:12:15;;;;;;;59.33;21.00;;;2.00;99.90;;;;;;5113334;28;20254;-74
2022/01/13 00:14:57;;;;;;;59.23;18.67;;;2.00;99.90;;;;;;5106684;28;20176;-74
2022/01/13 00:20:12;;;;;;;54.07;19.27;;;2.00;99.90;;;;;;5096608;28;20163;-74
2022/01/13 00:25:22;;;;;;;34.70;14.47;;;2.00;99.90;;;;;;5098244;28;20214;-76
2022/01/13 00:27:54;;;;;;;35.50;13.20;;;1.90;99.90;;;;;;5102379;28;20179;-74
2022/01/13 00:30:21;;;;;;;31.50;12.27;;;1.90;99.90;;;;;;5092335;28;20630;-74
2022/01/13 00:32:47;;;;;;;25.07;10.90;;;1.90;99.90;;;;;;5090890;28;20211;-73
2022/01/13 00:35:13;;;;;;;31.00;11.70;;;1.90;99.90;;;;;;5093378;28;20190;-73
2022/01/13 00:37:40;;;;;;;36.33;11.00;;;1.90;99.90;;;;;;5103534;28;20697;-74
2022/01/13 00:40:07;;;;;;;27.07;11.03;;;1.90;99.90;;;;;;5095682;28;20258;-73
2022/01/13 00:42:33;;;;;;;25.27;11.00;;;1.90;99.90;;;;;;5109518;28;20227;-73
2022/01/13 00:45:01;;;;;;;31.40;10.97;;;;;;;;;;5108489;28;20750;-75
2022/01/13 00:47:29;;;;;;;29.30;10.67;;;1.90;99.90;;;;;;5092318;28;20195;-75
2022/01/13 00:49:57;;;;;;;29.83;10.80;;;1.80;99.90;;;;;;5092412;28;20180;-74
2022/01/13 00:52:25;;;;;;;35.27;13.70;;;1.80;99.90;;;;;;5090829;28;20172;-74
2022/01/13 00:54:51;;;;;;;43.33;16.87;;;1.80;99.90;;;;;;5091919;28;20176;-75
2022/01/13 00:57:17;;;;;;;45.73;20.53;;;1.70;99.90;;;;;;5096908;28;20167;-75
2022/01/13 00:59:43;;;;;;;45.37;17.87;;;1.70;99.90;;;;;;5112237;28;20178;-74
2022/01/13 01:02:09;;;;;;;48.83;15.80;;;1.60;99.90;;;;;;5112338;28;20175;-73
2022/01/13 01:04:34;;;;;;;35.50;13.17;;;1.60;99.90;;;;;;5112110;28;20211;-73
2022/01/13 01:07:00;;;;;;;29.60;11.30;;;1.70;99.90;;;;;;5112165;28;20179;-72
2022/01/13 01:10:08;;;;;;;33.60;10.77;;;1.60;99.90;;;;;;5112208;28;20261;-75
2022/01/13 01:12:16;;;;;;;23.37;9.27;;;1.60;99.90;;;;;;5103686;28;20191;-75
2022/01/13 01:14:47;;;;;;;31.37;10.83;;;1.60;99.90;;;;;;5112242;28;20176;-74
2022/01/13 01:17:15;;;;;;;30.47;9.40;;;1.70;99.90;;;;;;5112054;28;20634;-75
2022/01/13 01:19:44;;;;;;;23.13;8.40;;;1.60;99.90;;;;;;5111991;28;20164;-75
2022/01/13 01:27:41;;;;;;;24.33;9.10;;;1.50;99.90;;;;;;5111974;28;20235;-74
2022/01/13 01:30:55;;;;;;;15.20;7.53;;;1.60;99.90;;;;;;5111738;28;20228;-74
2022/01/13 01:32:53;;;;;;;20.07;8.43;;;1.50;99.90;;;;;;5100492;28;20234;-74
2022/01/13 01:35:24;;;;;;;23.13;8.80;;;1.50;99.90;;;;;;5093956;28;20207;-74
2022/01/13 01:37:49;;;;;;;24.13;8.17;;;1.50;99.90;;;;;;5091416;28;20267;-78
2022/01/13 01:40:15;;;;;;;16.47;7.90;;;1.40;99.90;;;;;;5091331;28;20266;-78
2022/01/13 01:42:42;;;;;;;16.70;7.20;;;1.40;99.90;;;;;;5090855;28;20747;-75
2022/01/13 01:45:09;;;;;;;24.97;9.07;;;1.40;99.90;;;;;;5098983;28;20551;-75
2022/01/13 01:47:36;;;;;;;26.63;8.20;;;1.40;99.90;;;;;;5097932;28;20176;-74
2022/01/13 01:50:18;;;;;;;27.57;8.63;;;1.40;99.90;;;;;;5089758;28;20180;-74
2022/01/13 01:52:49;;;;;;;30.13;9.37;;;1.30;99.90;;;;;;5090632;28;20176;-75
2022/01/13 01:55:16;;;;;;;30.80;9.47;;;1.30;99.90;;;;;;5094433;28;20175;-75
2022/01/13 01:57:49;;;;;;;32.53;10.43;;;1.40;99.90;;;;;;5094640;28;20193;-75
2022/01/13 02:00:18;;;;;;;30.60;10.80;;;1.30;99.90;;;;;;5105315;28;20179;-75
2022/01/13 02:02:44;;;;;;;27.70;10.47;;;1.30;99.90;;;;;;5110257;28;20178;-75
2022/01/13 02:05:11;;;;;;;30.73;11.60;;;1.30;99.90;;;;;;5090876;28;20207;-74
2022/01/13 02:07:38;;;;;;;34.90;11.97;;;1.30;99.90;;;;;;5090987;28;20180;-74
2022/01/13 02:10:05;;;;;;;31.63;11.43;;;1.30;99.90;;;;;;5091212;28;20190;-74
2022/01/13 02:12:44;;;;;;;37.30;11.07;;;1.20;99.90;;;;;;5090887;28;20617;-76
2022/01/13 02:18:14;;;;;;;36.07;9.87;;;1.20;99.90;;;;;;5048297;28;20711;-76
2022/01/13 02:20:51;;;;;;;33.20;10.10;;;1.20;99.90;;;;;;5098317;28;20191;-75
2022/01/13 02:23:32;;;;;;;23.57;8.87;;;1.20;99.90;;;;;;5111231;28;20197;-75
2022/01/13 02:25:58;;;;;;;32.17;8.80;;;1.20;99.90;;;;;;5111000;28;20696;-75
2022/01/13 02:28:24;;;;;;;28.33;9.57;;;1.20;99.90;;;;;;5111123;28;20251;-76
2022/01/13 02:30:50;;;;;;;20.60;8.57;;;1.20;99.90;;;;;;5111067;28;20171;-76
2022/01/13 02:33:16;;;;;;;25.00;8.97;;;1.20;99.90;;;;;;5111215;28;20633;-76
2022/01/13 02:35:42;;;;;;;31.50;9.37;;;1.20;99.90;;;;;;5111072;28;20586;-75
2022/01/13 02:38:12;;;;;;;26.63;9.60;;;1.20;99.90;;;;;;5111041;28;20178;-74
2022/01/13 02:40:39;;;;;;;27.00;10.20;;;1.30;99.90;;;;;;5097362;28;20271;-74
2022/01/13 02:43:05;;;;;;;33.60;10.03;;;1.30;99.90;;;;;;5110020;28;20534;-73
2022/01/13 02:45:37;;;;;;;28.77;10.83;;;1.30;99.90;;;;;;5104747;28;20605;-74
2022/01/13 02:50:40;;;;;;;32.67;10.73;;;1.30;99.90;;;;;;5090644;28;20180;-74
2022/01/13 02:53:08;;;;;;;34.47;12.00;;;1.20;99.90;;;;;;5105535;28;20225;-73
2022/01/13 02:55:34;;;;;;;53.97;14.57;;;1.20;99.90;;;;;;5110805;28;20182;-74
2022/01/13 02:58:00;;;;;;;56.47;16.60;;;1.20;99.90;;;;;;5102001;28;20168;-76
2022/01/13 03:00:26;;;;;;;61.57;18.77;;;1.10;99.90;;;;;;5095672;28;20171;-76
2022/01/13 03:02:52;;;;;;;66.53;19.17;;;1.10;99.90;;;;;;5106995;28;20179;-72
2022/01/13 03:05:19;;;;;;;57.33;18.77;;;1.00;99.90;;;;;;5095342;28;20218;-73
2022/01/13 03:07:44;;;;;;;43.00;14.87;;;1.00;99.90;;;;;;5103179;28;20178;-73
2022/01/13 03:10:11;;;;;;;36.50;12.10;;;1.10;99.90;;;;;;5114741;28;20167;-73
2022/01/13 03:12:41;;;;;;;25.20;9.83;;;1.00;99.90;;;;;;5099304;28;20179;-73
2022/01/13 03:15:07;;;;;;;20.63;8.63;;;0.60;99.90;;;;;;5094090;28;20180;-73
2022/01/13 03:17:33;;;;;;;31.37;9.20;;;1.00;99.90;;;;;;5093958;28;20642;-73
2022/01/13 03:19:59;;;;;;;24.43;8.13;;;1.00;99.90;;;;;;5094677;28;20175;-73
2022/01/13 03:22:25;;;;;;;18.53;7.83;;;1.00;99.90;;;;;;5094609;28;20231;-73
2022/01/13 03:24:52;;;;;;;27.03;8.83;;;1.00;99.90;;;;;;5109308;28;20787;-74
2022/01/13 03:27:21;;;;;;;20.83;8.63;;;1.10;99.90;;;;;;5114298;28;20186;-74
2022/01/13 03:29:48;;;;;;;23.47;8.57;;;1.10;99.90;;;;;;5114329;28;20248;-73
2022/01/13 03:32:14;;;;;;;22.67;7.87;;;1.00;99.90;;;;;;5114325;28;20167;-74
2022/01/13 03:34:40;;;;;;;26.63;7.37;;;1.00;99.90;;;;;;5104040;28;20259;-72
2022/01/13 03:37:06;;;;;;;23.37;8.03;;;1.00;99.90;;;;;;5093578;28;20275;-70
2022/01/13 03:39:32;;;;;;;25.77;8.47;;;1.00;99.90;;;;;;5093630;28;20171;-73
2022/01/13 03:42:01;;;;;;;20.73;8.33;;;1.00;99.90;;;;;;5093461;28;20219;-73
2022/01/13 03:44:27;;;;;;;21.40;7.37;;;0.90;99.90;;;;;;5093527;28;20235;-72
2022/01/13 03:46:55;;;;;;;24.33;8.10;;;1.00;99.90;;;;;;5093519;28;20626;-73
2022/01/13 03:49:21;;;;;;;25.20;7.23;;;0.90;99.90;;;;;;5093552;28;20168;-74
2022/01/13 03:51:55;;;;;;;26.83;7.87;;;1.00;99.90;;;;;;5093574;28;20174;-74
2022/01/13 03:54:35;;;;;;;24.93;7.57;;;1.00;99.90;;;;;;5093456;28;20175;-74
2022/01/13 03:57:13;;;;;;;28.67;8.20;;;1.00;99.90;;;;;;5093382;28;20168;-74
2022/01/13 04:00:03;;;;;;;25.67;8.40;;;0.90;99.90;;;;;;5093248;28;20171;-74
2022/01/13 04:02:29;;;;;;;37.83;8.80;;;0.80;99.90;;;;;;5093282;28;20160;-72
2022/01/13 04:04:54;;;;;;;31.60;10.00;;;0.80;99.90;;;;;;5093113;28;20200;-72
2022/01/13 04:07:25;;;;;;;21.10;9.20;;;0.80;99.90;;;;;;5093146;28;20195;-72
2022/01/13 04:09:50;;;;;;;25.23;9.53;;;0.80;99.90;;;;;;5096578;28;20202;-72
2022/01/13 04:12:19;;;;;;;31.40;9.87;;;0.80;99.90;;;;;;5101673;28;20600;-72
2022/01/13 04:14:49;;;;;;;30.53;9.17;;;0.80;99.90;;;;;;5112581;28;20171;-71
2022/01/13 04:17:20;;;;;;;26.50;8.50;;;0.70;99.90;;;;;;5105429;28;20175;-72
2022/01/13 04:19:46;;;;;;;22.93;8.27;;;0.80;99.90;;;;;;5108161;28;20175;-72
2022/01/13 04:22:13;;;;;;;23.40;9.47;;;0.80;99.90;;;;;;5111490;28;20172;-73
2022/01/13 04:24:43;;;;;;;26.17;10.60;;;0.90;99.90;;;;;;5092555;28;20199;-71
2022/01/13 04:27:10;;;;;;;20.90;8.37;;;1.00;99.90;;;;;;5092762;28;20664;-73
2022/01/13 04:29:39;;;;;;;36.60;9.20;;;1.10;99.90;;;;;;5093058;28;20183;-73
2022/01/13 04:32:06;;;;;;;32.30;9.70;;;1.20;99.90;;;;;;5106600;28;20172;-73
2022/01/13 04:34:31;;;;;;;29.23;9.20;;;1.20;99.90;;;;;;5092434;28;20172;-74
2022/01/13 04:36:58;;;;;;;29.53;8.83;;;1.30;99.90;;;;;;5092693;28;20178;-73
2022/01/13 04:39:25;;;;;;;27.73;8.50;;;1.30;99.90;;;;;;5092462;28;20180;-74
2022/01/13 04:41:52;;;;;;;20.90;8.53;;;1.40;99.90;;;;;;5095685;28;20250;-73
2022/01/13 04:44:20;;;;;;;19.90;8.13;;;1.40;99.90;;;;;;5092031;28;20688;-72
2022/01/13 04:46:47;;;;;;;20.97;8.63;;;1.40;99.90;;;;;;5092209;28;20184;-72
2022/01/13 04:49:13;;;;;;;22.27;7.57;;;1.40;99.90;;;;;;5092197;28;20225;-72
2022/01/13 04:51:40;;;;;;;24.57;8.20;;;1.40;99.90;;;;;;5108538;28;20262;-72
2022/01/13 04:54:07;;;;;;;28.83;9.63;;;1.50;99.90;;;;;;5092011;28;20175;-72
2022/01/13 04:57:02;;;;;;;24.33;9.60;;;1.50;99.90;;;;;;5092030;28;20222;-73
2022/01/13 04:59:28;;;;;;;28.77;9.47;;;1.50;99.90;;;;;;5096074;28;20159;-72
2022/01/13 05:01:54;;;;;;;24.93;9.17;;;1.50;99.90;;;;;;5100512;28;20172;-72
2022/01/13 05:04:21;;;;;;;21.67;8.43;;;1.40;99.90;;;;;;5091945;28;20206;-72
2022/01/13 05:06:47;;;;;;;23.77;8.33;;;1.40;99.90;;;;;;5091962;28;20188;-73
2022/01/13 05:09:13;;;;;;;21.60;9.60;;;1.40;99.90;;;;;;5091871;28;20178;-72
2022/01/13 05:11:38;;;;;;;25.97;9.43;;;1.40;99.90;;;;;;5091915;28;20179;-72
2022/01/13 05:14:04;;;;;;;22.00;8.47;;;1.40;99.90;;;;;;5091816;28;20191;-72
2022/01/13 05:16:58;;;;;;;23.77;8.67;;;1.30;99.90;;;;;;5097273;28;20172;-72
2022/01/13 05:19:22;;;;;;;33.23;9.70;;;1.30;99.90;;;;;;5111711;28;20186;-71
2022/01/13 05:24:26;;;;;;;48.37;10.50;;;1.30;99.90;;;;;;5091368;28;20196;-72
2022/01/13 05:26:52;;;;;;;74.37;12.27;;;1.20;99.90;;;;;;5091513;28;20187;-71
2022/01/13 05:29:20;;;;;;;76.50;13.07;;;1.20;99.90;;;;;;5104492;28;20183;-71
2022/01/13 05:31:47;;;;;;;69.70;14.80;;;1.20;99.90;;;;;;5095079;28;20649;-65
2022/01/13 05:34:14;;;;;;;68.93;15.37;;;1.10;99.90;;;;;;5099469;28;20263;-76
2022/01/13 05:36:40;;;;;;;168.97;18.77;;;;;;;;;;5092080;28;20630;-76
2022/01/13 05:39:17;;;;;;;67.67;14.77;;;1.10;99.90;;;;;;5112096;28;20182;-76
2022/01/13 05:41:44;;;;;;;78.83;14.70;;;;;;;;;;5110270;28;20222;-75
2022/01/13 05:44:09;;;;;;;50.07;13.50;;;0.80;99.90;;;;;;5110381;28;20705;-75
2022/01/13 05:46:43;;;;;;;45.67;13.00;;;1.00;99.90;;;;;;5110038;28;20540;-75
2022/01/13 05:49:14;;;;;;;83.47;14.80;;;0.70;99.90;;;;;;5110636;28;20199;-77
2022/01/13 05:51:43;;;;;;;51.10;13.30;;;0.80;99.90;;;;;;5110868;28;20175;-76
2022/01/13 05:54:11;;;;;;;50.03;13.53;;;0.70;99.90;;;;;;5111833;28;20175;-76
2022/01/13 05:56:37;;;;;;;59.93;14.17;;;0.70;99.90;;;;;;5111676;28;20246;-74
2022/01/13 05:59:03;;;;;;;43.30;14.40;;;0.70;99.90;;;;;;5111581;28;20585;-74
2022/01/13 06:01:29;;;;;;;50.30;14.73;;;0.70;99.90;;;;;;5111713;28;20169;-76
2022/01/13 06:03:54;;;;;;;45.37;13.97;;;0.70;99.90;;;;;;5111699;28;20171;-74
2022/01/13 06:06:20;;;;;;;40.93;15.23;;;0.60;99.90;;;;;;5111567;28;20515;-75
2022/01/13 06:08:46;;;;;;;48.60;14.10;;;0.60;99.90;;;;;;5111640;28;20632;-73
2022/01/13 06:11:11;;;;;;;49.57;14.27;;;0.50;99.90;;;;;;5111588;28;20689;-73
2022/01/13 06:13:37;;;;;;;45.60;15.97;;;0.50;99.90;;;;;;5111496;28;20548;-74
2022/01/13 06:16:03;;;;;;;87.67;16.60;;;0.50;99.90;;;;;;5111453;28;20641;-73
2022/01/13 06:18:29;;;;;;;99.33;18.00;;;0.60;99.90;;;;;;5111609;28;20206;-74
2022/01/13 06:20:55;;;;;;;88.30;17.13;;;0.50;99.90;;;;;;5111274;28;20171;-74
2022/01/13 06:23:21;;;;;;;59.27;16.70;;;0.50;99.90;;;;;;5111561;28;20174;-74
2022/01/13 06:25:47;;;;;;;53.40;16.20;;;0.40;99.90;;;;;;5106116;28;20215;-72
2022/01/13 06:28:12;;;;;;;46.67;15.63;;;0.40;99.90;;;;;;5091115;28;20663;-72
2022/01/13 06:30:38;;;;;;;87.27;18.03;;;0.40;99.90;;;;;;5090929;28;20244;-72
2022/01/13 06:33:04;;;;;;;73.50;18.03;;;0.40;99.90;;;;;;5102008;28;20175;-71
2022/01/13 06:35:30;;;;;;;67.93;18.33;;;0.40;99.90;;;;;;5094253;28;20180;-72
2022/01/13 06:37:55;;;;;;;46.70;16.23;;;0.40;99.90;;;;;;5106103;28;20184;-73
2022/01/13 06:40:21;;;;;;;46.47;15.77;;;0.40;99.90;;;;;;5101102;28;20543;-72
2022/01/13 06:42:47;;;;;;;43.50;17.30;;;0.40;99.90;;;;;;5114835;28;20704;-72
2022/01/13 06:45:13;;;;;;;72.13;18.00;;;0.40;99.90;;;;;;5103913;28;20615;-72
2022/01/13 06:47:40;;;;;;;59.50;19.07;;;0.40;99.90;;;;;;5094657;28;20519;-72
2022/01/13 06:50:07;;;;;;;57.80;16.90;;;0.40;99.90;;;;;;5094631;28;20255;-72
2022/01/13 06:52:33;;;;;;;48.67;17.17;;;0.30;99.90;;;;;;5094693;28;20172;-72
2022/01/13 06:54:58;;;;;;;40.87;16.43;;;0.30;99.90;;;;;;5093318;28;20176;-70
2022/01/13 06:57:24;;;;;;;411.13;31.33;;;0.30;99.90;;;;;;5105657;28;20171;-72
2022/01/13 06:59:50;;;;;;;163.63;21.33;;;0.40;99.90;;;;;;5114869;28;20187;-72
2022/01/13 07:02:16;;;;;;;88.47;18.40;;;0.30;99.90;;;;;;5114830;28;20173;-73
2022/01/13 07:04:43;;;;;;;93.63;18.03;;;0.20;99.90;;;;;;5114754;28;20207;-73
2022/01/13 07:07:09;;;;;;;69.60;18.23;;;0.20;99.90;;;;;;5114610;28;20163;-72
2022/01/13 07:09:35;;;;;;;49.63;18.13;;;0.30;99.90;;;;;;5114480;28;20199;-72
2022/01/13 07:12:01;;;;;;;120.90;18.77;;;0.30;99.90;;;;;;5104083;28;20206;-72
2022/01/13 07:14:27;;;;;;;59.70;19.40;;;0.30;99.90;;;;;;5111615;28;20174;-73
2022/01/13 07:16:53;;;;;;;63.70;18.90;;;0.30;99.90;;;;;;5110724;28;20164;-74
2022/01/13 07:19:18;;;;;;;53.27;18.63;;;0.10;99.90;;;;;;5093956;28;20175;-73
2022/01/13 07:21:45;;;;;;;40.10;17.43;;;0.30;99.90;;;;;;5094127;28;20171;-74
2022/01/13 07:24:11;;;;;;;81.47;18.13;;;0.30;99.90;;;;;;5093760;28;20824;-73
2022/01/13 07:26:37;;;;;;;30.40;15.77;;;0.30;99.90;;;;;;5094030;28;20527;-74
2022/01/13 07:29:07;;;;;;;34.50;16.33;;;0.30;99.90;;;;;;5097625;28;20179;-74
2022/01/13 07:31:33;;;;;;;32.50;15.57;;;0.20;99.90;;;;;;5114332;28;20664;-74
2022/01/13 07:33:59;;;;;;;32.90;16.43;;;0.20;99.90;;;;;;5114178;28;20174;-74
2022/01/13 07:36:25;;;;;;;37.30;16.93;;;0.20;99.90;;;;;;5114226;28;20171;-74
2022/01/13 07:38:51;;;;;;;38.53;17.57;;;0.30;99.90;;;;;;5112624;28;20579;-73
2022/01/13 07:41:17;;;;;;;31.50;16.43;;;0.30;99.90;;;;;;5114421;28;20190;-74
2022/01/13 07:43:47;;;;;;;34.00;17.60;;;0.30;99.90;;;;;;5113777;28;20294;-74
2022/01/13 07:46:13;;;;;;;41.37;17.40;;;0.30;99.90;;;;;;5114105;28;20247;-75
2022/01/13 07:48:39;;;;;;;31.60;16.50;;;0.30;99.90;;;;;;5113886;28;20175;-74
2022/01/13 07:51:06;;;;;;;43.73;19.50;;;0.30;99.90;;;;;;5112895;28;20182;-74
2022/01/13 07:53:32;;;;;;;43.73;19.37;;;0.30;99.90;;;;;;5113651;28;20200;-73
2022/01/13 07:55:57;;;;;;;39.37;17.70;;;0.30;99.90;;;;;;5113744;28;20525;-73
2022/01/13 07:58:23;;;;;;;37.20;17.73;;;0.30;99.90;;;;;;5113757;28;20175;-73
2022/01/13 08:00:49;;;;;;;37.53;17.13;;;0.30;99.90;;;;;;5113652;28;20163;-76
2022/01/13 08:03:15;;;;;;;30.43;15.77;;;0.30;99.90;;;;;;5108275;28;20259;-67
2022/01/13 08:05:40;;;;;;;34.30;16.70;;;0.40;99.90;;;;;;5102316;28;20283;-69
2022/01/13 08:08:06;;;;;;;35.73;17.53;;;0.40;99.90;;;;;;5100013;28;20179;-69
2022/01/13 08:10:33;;;;;;;44.57;17.00;;;0.30;99.90;;;;;;5113475;28;20187;-68
2022/01/13 08:12:59;;;;;;;45.57;18.40;;;0.20;99.90;;;;;;5099293;28;20199;-69
2022/01/13 08:15:25;;;;;;;44.87;18.07;;;0.20;99.90;;;;;;5092395;28;20654;-68
2022/01/13 08:20:36;;;;;;;41.70;17.13;;;0.30;99.90;;;;;;5098913;28;20186;-68
2022/01/13 08:23:02;;;;;;;44.63;17.07;;;0.30;99.90;;;;;;5096033;28;20246;-67
2022/01/13 08:25:29;;;;;;;37.93;18.17;;;0.30;99.90;;;;;;5091164;28;20574;-67
2022/01/13 08:27:55;;;;;;;38.80;17.53;;;0.40;99.90;;;;;;5092561;28;20247;-66
2022/01/13 08:30:21;;;;;;;37.03;17.83;;;0.40;99.90;;;;;;5092617;28;20254;-82
2022/01/13 08:32:47;;;;;;;42.90;19.10;;;0.50;99.90;;;;;;5092872;28;20172;-83
2022/01/13 08:35:13;;;;;;;46.73;20.10;;;0.60;99.90;;;;;;5094706;28;20168;-71
2022/01/13 08:37:39;;;;;;;53.50;20.97;;;1.70;99.90;;;;;;5092656;28;20168;-73
2022/01/13 08:40:09;;;;;;;53.03;20.73;;;0.70;99.90;;;;;;5092400;28;20526;-69
2022/01/13 08:42:35;;;;;;;51.60;20.13;;;0.80;99.90;;;;;;5092222;28;20226;-66
2022/01/13 08:45:05;;;;;;;49.43;19.13;;;0.80;99.90;;;;;;5093048;28;20246;-68
2022/01/13 08:47:32;;;;;;;38.53;18.33;;;1.00;99.90;;;;;;5093439;28;20171;-70
2022/01/13 08:49:57;;;;;;;40.23;17.97;;;0.90;99.90;;;;;;5100840;28;20232;-64
2022/01/13 08:52:24;;;;;;;45.80;18.77;;;1.00;99.90;;;;;;5112428;28;20171;-71
2022/01/13 08:54:51;;;;;;;41.23;17.43;;;1.90;99.90;;;;;;5104618;28;20175;-71
2022/01/13 08:57:20;;;;;;;44.23;18.20;;;1.80;99.90;;;;;;5091492;28;20707;-71
2022/01/13 08:59:46;;;;;;;48.17;18.93;;;1.90;99.90;;;;;;5091907;28;20187;-70
2022/01/13 09:02:12;;;;;;;38.87;16.97;;;3.10;99.90;;;;;;5107937;28;20197;-71
2022/01/13 09:04:39;;;;;;;41.67;16.37;;;3.90;99.90;;;;;;5110982;28;20732;-70
2022/01/13 09:07:04;;;;;;;38.80;15.87;;;3.70;99.90;;;;;;5106148;28;20262;-71
2022/01/13 09:09:30;;;;;;;38.20;15.20;;;3.90;99.90;;;;;;5112271;28;20255;-71
2022/01/13 09:11:56;;;;;;;28.80;13.13;;;4.40;99.90;;;;;;5095452;28;20176;-71
2022/01/13 09:14:25;;;;;;;33.77;13.53;;;4.70;99.90;;;;;;5091599;28;20516;-69
2022/01/13 09:16:52;;;;;;;31.03;13.60;;;4.80;99.90;;;;;;5091736;28;20222;-69
2022/01/13 09:19:19;;;;;;;27.77;13.63;;;4.60;99.90;;;;;;5092058;28;20175;-69
2022/01/13 09:21:47;;;;;;;29.27;13.87;;;4.10;99.90;;;;;;5091729;28;20259;-70
2022/01/13 09:24:15;;;;;;;28.57;13.87;;;4.30;99.90;;;;;;5090339;28;20280;-72
2022/01/13 09:26:43;;;;;;;26.60;13.27;;;4.40;99.90;;;;;;5101369;28;20183;-72
2022/01/13 09:29:10;;;;;;;26.13;12.27;;;4.40;99.90;;;;;;5111338;28;20268;-72
2022/01/13 09:31:38;;;;;;;26.17;12.87;;;4.70;99.90;;;;;;5111536;28;20251;-71
2022/01/13 09:34:05;;;;;;;25.57;12.33;;;5.00;99.90;;;;;;5111865;28;20191;-71
2022/01/13 09:36:32;;;;;;;26.37;12.03;;;5.20;99.90;;;;;;5111923;28;20248;-72
2022/01/13 09:38:59;;;;;;;29.40;12.23;;;5.30;99.90;;;;;;5111795;28;20253;-71
2022/01/13 09:41:30;;;;;;;28.80;12.80;;;5.40;99.90;;;;;;5111858;28;20178;-70
2022/01/13 09:43:57;;;;;;;22.70;13.13;;;5.40;99.90;;;;;;5111163;28;20249;-76
2022/01/13 09:46:26;;;;;;;32.23;13.33;;;5.00;99.90;;;;;;5111679;28;20664;-65
2022/01/13 09:48:53;;;;;;;30.40;13.93;;;5.40;99.90;;;;;;5111344;28;20175;-64
2022/01/13 09:51:22;;;;;;;27.80;13.23;;;5.80;99.90;;;;;;5110130;28;20245;-64
2022/01/13 09:53:48;;;;;;;30.33;13.70;;;6.10;99.90;;;;;;5111311;28;20171;-67
2022/01/13 09:56:14;;;;;;;25.63;13.07;;;5.70;99.90;;;;;;5111548;28;20182;-67
2022/01/13 09:58:43;;;;;;;23.47;13.43;;;6.60;99.90;;;;;;5111516;28;20659;-67
2022/01/13 10:01:10;;;;;;;25.33;13.77;;;6.50;99.90;;;;;;5111220;28;20182;-71
2022/01/13 10:03:37;;;;;;;32.97;15.30;;;6.50;99.90;;;;;;5111476;28;20163;-69
2022/01/13 10:06:13;;;;;;;34.77;14.87;;;6.30;99.90;;;;;;5111382;28;20199;-70
2022/01/13 10:08:40;;;;;;;34.57;14.33;;;5.80;99.90;;;;;;5111261;28;20159;-70
2022/01/13 10:11:28;;;;;;;39.30;14.23;;;5.30;99.90;;;;;;5108024;28;20228;-72
2022/01/13 10:14:10;;;;;;;32.70;14.43;;;4.90;99.90;;;;;;5109758;28;20171;-70
2022/01/13 10:16:46;;;;;;;30.57;15.00;;;4.60;99.90;;;;;;5113237;28;20170;-70
2022/01/13 10:19:44;;;;;;;35.93;17.83;;;4.30;99.90;;;;;;5114707;28;20178;-70
2022/01/13 10:22:19;;;;;;;37.53;18.73;;;4.40;99.90;;;;;;5113886;28;20246;-72
2022/01/13 10:24:52;;;;;;;46.17;20.60;;;4.30;99.90;;;;;;5113453;28;20209;-71
2022/01/13 10:27:21;;;;;;;48.17;24.40;;;4.40;99.90;;;;;;5113356;28;20514;-71
2022/01/13 10:30:04;;;;;;;51.07;22.97;;;4.70;99.90;;;;;;5113119;28;20179;-71
2022/01/13 10:32:38;;;;;;;45.33;21.33;;;5.30;99.90;;;;;;5113290;28;20250;-71
2022/01/13 10:35:13;;;;;;;40.50;19.63;;;5.20;99.90;;;;;;5113844;28;20181;-72
2022/01/13 10:37:41;;;;;;;38.23;19.77;;;5.00;99.90;;;;;;5115093;28;20166;-72
2022/01/13 10:40:13;;;;;;;36.63;18.07;;;5.00;99.90;;;;;;5114991;28;20191;-71
2022/01/13 10:45:20;;;;;;;42.83;17.67;;;5.40;99.90;;;;;;5094518;28;20269;-71
2022/01/13 10:47:51;;;;;;;39.63;17.77;;;6.30;99.90;;;;;;5094413;28;20179;-70
2022/01/13 10:50:17;;;;;;;36.47;17.57;;;7.70;99.90;;;;;;5094581;28;20171;-70
2022/01/13 10:52:43;;;;;;;33.50;16.90;;;7.90;99.90;;;;;;5094378;28;20163;-70
2022/01/13 10:55:09;;;;;;;31.03;14.77;;;7.80;99.90;;;;;;5094348;28;20167;-72
2022/01/13 10:57:37;;;;;;;28.33;13.00;;;7.80;99.90;;;;;;5094508;28;20225;-72
2022/01/13 11:00:17;;;;;;;31.97;13.57;;;8.30;99.90;;;;;;5093050;28;20306;-71
2022/01/13 11:03:08;;;;;;;27.90;13.03;;;7.90;99.90;;;;;;5094347;28;20176;-71
2022/01/13 11:05:40;;;;;;;27.43;14.33;;;7.70;99.90;;;;;;5094175;28;20200;-72
2022/01/13 11:08:08;;;;;;;32.83;13.43;;;7.90;99.90;;;;;;5092887;28;20181;-71
2022/01/13 11:10:36;;;;;;;24.27;12.30;;;8.10;99.90;;;;;;5094248;28;20504;-69
2022/01/13 11:13:05;;;;;;;30.57;13.30;;;8.70;99.90;;;;;;5094182;28;20164;-71
2022/01/13 11:15:34;;;;;;;23.60;11.50;;;11.10;99.90;;;;;;5094087;28;20263;-71
2022/01/13 11:18:06;;;;;;;29.40;14.20;;;11.10;99.90;;;;;;5094094;28;20178;-71
2022/01/13 11:20:31;;;;;;;20.37;10.50;;;10.50;99.90;;;;;;5094266;28;20160;-70
2022/01/13 11:22:58;;;;;;;19.83;12.30;;;12.30;99.90;;;;;;5094039;28;20164;-70
2022/01/13 11:25:27;;;;;;;19.40;10.70;;;13.80;99.90;;;;;;5093300;28;20207;-69
2022/01/13 11:27:54;;;;;;;19.90;10.53;;;14.60;99.90;;;;;;5093130;28;20164;-70
2022/01/13 11:30:23;;;;;;;23.43;10.03;;;13.90;99.90;;;;;;5092307;28;20245;-71
2022/01/13 11:32:50;;;;;;;20.13;10.15;;;14.10;99.90;;;;;;5093781;28;20203;-71
2022/01/13 11:35:28;;;;;;;20.95;9.88;;;14.30;99.90;;;;;;5093685;28;20167;-70
2022/01/13 11:37:56;;;;;;;21.58;10.40;;;14.10;99.90;;;;;;5093639;28;20175;-71
2022/01/13 11:40:27;;;;;;;18.83;9.88;;;14.10;99.90;;;;;;5094003;28;20724;-70
2022/01/13 11:42:59;;;;;;;19.55;10.38;;;13.70;99.90;;;;;;5093414;28;20261;-71
2022/01/13 11:45:26;;;;;;;21.88;10.30;;;14.60;99.90;;;;;;5093414;28;20662;-71
2022/01/13 11:48:21;;;;;;;23.63;11.57;;;16.00;99.90;;;;;;5093471;28;20164;-69
2022/01/13 11:50:54;;;;;;;14.00;9.15;;;17.60;99.90;;;;;;5093439;28;20206;-69
2022/01/13 11:53:27;;;;;;;14.35;8.23;;;18.30;99.90;;;;;;5092091;28;20172;-68
2022/01/13 11:56:00;;;;;;;12.60;8.00;;;18.60;99.90;;;;;;5093374;28;20175;-68
2022/01/13 11:58:38;;;;;;;10.80;7.55;;;19.70;99.90;;;;;;5093491;28;20184;-69
2022/01/13 12:01:16;;;;;;;14.32;8.75;;;20.10;99.90;;;;;;5093329;28;20199;-69
2022/01/13 12:03:42;;;;;;;13.45;8.10;;;20.20;99.90;;;;;;5093059;28;20171;-68
2022/01/13 12:06:28;;;;;;;20.20;9.55;;;20.50;99.90;;;;;;5092858;28;20199;-68
2022/01/13 12:08:56;;;;;;;15.88;9.05;;;21.00;99.90;;;;;;5092686;28;20250;-68
2022/01/13 12:11:45;;;;;;;20.48;9.07;;;21.00;99.90;;;;;;5074786;28;20180;-70
2022/01/13 12:14:24;;;;;;;13.35;9.00;;;21.00;99.90;;;;;;5092804;28;20213;-71
2022/01/13 12:17:03;;;;;;;21.45;9.52;;;21.60;99.90;;;;;;5092863;28;20171;-71
2022/01/13 12:19:32;;;;;;;34.00;8.93;;;20.80;99.90;;;;;;5092691;28;20179;-70
2022/01/13 12:22:04;;;;;;;14.88;8.63;;;21.40;99.90;;;;;;5092624;28;20207;-71
2022/01/13 12:25:03;;;;;;;32.70;8.57;;;21.40;99.90;;;;;;5092179;28;20270;-70
2022/01/13 12:27:38;;;;;;;22.83;9.10;;;22.20;99.90;;;;;;5047946;28;20179;-71
2022/01/13 12:30:11;;;;;;;28.38;9.48;;;21.40;99.90;;;;;;5092622;28;20172;-70
2022/01/13 12:32:42;;;;;;;25.30;10.65;;;22.00;99.90;;;;;;5092420;28;20172;-71
2022/01/13 12:35:22;;;;;;;19.00;9.80;;;20.80;99.90;;;;;;5092684;28;20221;-71
2022/01/13 12:38:02;;;;;;;27.08;9.13;;;21.60;99.90;;;;;;5090807;28;20731;-71
2022/01/13 12:40:34;;;;;;;17.85;9.32;;;21.40;99.90;;;;;;5091138;28;20171;-70
2022/01/13 12:46:24;;;;;;;16.52;7.90;;;21.90;99.90;;;;;;5089101;28;20219;-69
2022/01/13 12:48:53;;;;;;;21.05;8.40;;;21.90;99.90;;;;;;5112062;28;20159;-69
2022/01/13 12:51:21;;;;;;;17.73;8.32;;;21.70;99.90;;;;;;5112370;28;20167;-67
2022/01/13 12:53:48;;;;;;;14.40;8.05;;;21.80;99.90;;;;;;5111122;28;20706;-68
2022/01/13 12:56:25;;;;;;;16.30;8.25;;;21.80;99.90;;;;;;5112516;28;20179;-68
2022/01/13 12:59:00;;;;;;;21.27;9.02;;;21.70;99.90;;;;;;5111104;28;20192;-68
2022/01/13 13:01:28;;;;;;;26.55;9.70;;;21.80;99.90;;;;;;5112491;27;20233;-68
2022/01/13 13:04:02;;;;;;;32.58;9.48;;;21.80;99.90;;;;;;5110982;28;20175;-68
2022/01/13 13:06:29;;;;;;;29.02;10.00;;;21.30;99.90;;;;;;5112429;28;20199;-69
2022/01/13 13:09:10;;;;;;;24.42;9.85;;;21.10;99.90;;;;;;5112259;28;20159;-68
2022/01/13 13:11:41;;;;;;;20.50;10.00;;;21.10;99.90;;;;;;5112274;28;20178;-69
2022/01/13 13:14:18;;;;;;;21.58;9.20;;;20.90;99.90;;;;;;5112124;28;20518;-69
2022/01/13 13:16:50;;;;;;;25.15;9.43;;;22.00;99.90;;;;;;5110561;28;20183;-69
2022/01/13 13:19:17;;;;;;;17.00;9.88;;;21.50;99.90;;;;;;5111846;28;20182;-68